createdAt,value
2019-01-28T00:02:26.196Z,85.69
2019-01-28T00:04:56.527Z,85.19
2019-01-28T00:07:26.737Z,85.12
2019-01-28T00:09:57.146Z,84.36
2019-01-28T00:12:27.478Z,84.81
2019-01-28T00:15:16.771Z,84.11
2019-01-28T00:18:06.191Z,83.64
2019-01-28T00:20:36.464Z,83.62
2019-01-28T00:23:06.559Z,83.14
2019-01-28T00:25:37.086Z,83.33
2019-01-28T00:28:26.686Z,83.13
2019-01-28T00:31:16.005Z,82.64
2019-01-28T00:34:06.440Z,82.82
2019-01-28T00:36:55.671Z,83.10
2019-01-28T00:39:44.853Z,82.96
2019-01-28T00:42:34.052Z,83.76
2019-01-28T00:45:23.289Z,83.66
2019-01-28T00:47:53.517Z,83.23
2019-01-28T00:50:23.744Z,83.14
2019-01-28T00:52:54.300Z,82.93
2019-01-28T00:55:43.866Z,83.24
2019-01-28T00:58:33.361Z,83.30
2019-01-28T01:01:22.859Z,83.36
2019-01-28T01:06:49.722Z,83.95
2019-01-28T01:09:20.094Z,84.06
2019-01-28T01:11:50.295Z,83.93
2019-01-28T01:14:39.981Z,84.33
2019-01-28T01:17:29.231Z,84.61
2019-01-28T01:19:59.400Z,85.04
2019-01-28T01:22:29.817Z,84.74
2019-01-28T01:24:59.934Z,84.92
2019-01-28T01:27:30.104Z,84.63
2019-01-28T01:30:00.539Z,84.34
2019-01-28T01:32:30.761Z,84.48
2019-01-28T01:35:00.927Z,84.60
2019-01-28T01:37:31.408Z,84.43
2019-01-28T01:40:01.640Z,84.39
2019-01-28T01:42:31.750Z,85.08
2019-01-28T01:45:01.871Z,85.34
2019-01-28T01:47:32.760Z,85.68
2019-01-28T01:50:03.084Z,86.22
2019-01-28T01:52:33.229Z,87.04
2019-01-28T01:55:22.651Z,86.99
2019-01-28T01:57:52.798Z,87.09
2019-01-28T02:00:23.176Z,87.51
2019-01-28T02:02:53.283Z,87.97
2019-01-28T02:05:23.872Z,87.84
2019-01-28T02:08:13.037Z,88.38
2019-01-28T02:11:02.199Z,88.66
2019-01-28T02:13:51.950Z,89.76
2019-01-28T02:16:22.165Z,89.45
2019-01-28T02:19:11.788Z,89.40
2019-01-28T02:22:01.353Z,89.43
2019-01-28T02:24:50.530Z,89.71
2019-01-28T02:27:20.820Z,89.79
2019-01-28T02:30:10.907Z,89.84
2019-01-28T02:32:52.468Z,89.84
2019-01-28T02:38:26.393Z,91.36
2019-01-28T02:40:56.624Z,90.63
2019-01-28T02:43:46.181Z,90.20
2019-01-28T02:46:35.379Z,89.43
2019-01-28T02:49:24.683Z,88.84
2019-01-28T02:52:13.941Z,88.38
2019-01-28T02:54:44.200Z,87.74
2019-01-28T02:57:14.487Z,87.99
2019-01-28T03:00:03.984Z,87.43
2019-01-28T03:02:53.188Z,87.62
2019-01-28T03:05:23.665Z,88.56
2019-01-28T03:07:53.838Z,88.97
2019-01-28T03:10:43.054Z,89.19
2019-01-28T03:13:32.190Z,88.78
2019-01-28T03:16:21.643Z,89.01
2019-01-28T03:19:10.882Z,89.18
2019-01-28T03:22:00.535Z,88.91
2019-01-28T03:24:49.886Z,88.64
2019-01-28T03:27:21.055Z,87.88
2019-01-28T03:29:51.262Z,87.13
2019-01-28T03:32:32.858Z,86.68
2019-01-28T03:35:14.555Z,86.36
2019-01-28T03:40:27.812Z,85.72
2019-01-28T03:43:38.825Z,85.95
2019-01-28T03:46:28.030Z,86.07
2019-01-28T03:49:17.515Z,86.77
2019-01-28T03:55:04.183Z,87.01
2019-01-28T03:57:53.998Z,86.27
2019-01-28T04:00:25.136Z,85.98
2019-01-28T04:03:15.367Z,85.84
2019-01-28T04:05:45.643Z,85.83
2019-01-28T04:08:34.898Z,85.92
2019-01-28T04:11:24.523Z,86.73
2019-01-28T04:14:13.839Z,87.30
2019-01-28T04:17:03.010Z,86.23
2019-01-28T04:19:33.285Z,85.39
2019-01-28T04:22:22.851Z,85.64
2019-01-28T04:25:12.259Z,86.19
2019-01-28T04:28:01.549Z,86.01
2019-01-28T04:30:50.964Z,84.29
2019-01-28T04:33:30.766Z,83.87
2019-01-28T04:38:44.620Z,85.01
2019-01-28T04:41:14.708Z,86.18
2019-01-28T04:47:43.846Z,85.01
2019-01-28T04:50:15.945Z,85.42
2019-01-28T04:52:46.386Z,86.03
2019-01-28T04:55:16.957Z,85.11
2019-01-28T04:58:06.133Z,84.93
2019-01-28T05:00:55.334Z,84.90
2019-01-28T05:03:44.982Z,85.42
2019-01-28T05:06:34.290Z,85.13
2019-01-28T05:09:23.474Z,85.15
2019-01-28T05:12:12.681Z,85.88
2019-01-28T05:14:42.848Z,86.11
2019-01-28T05:17:31.983Z,85.13
2019-01-28T05:20:02.133Z,85.25
2019-01-28T05:22:32.422Z,85.50
2019-01-28T05:25:21.661Z,86.22
2019-01-28T05:28:30.045Z,86.37
2019-01-28T05:31:00.220Z,85.91
2019-01-28T05:33:31.357Z,86.33
2019-01-28T05:36:20.592Z,86.52
2019-01-28T05:38:50.732Z,86.83
2019-01-28T05:41:40.178Z,87.29
2019-01-28T05:44:29.402Z,87.53
2019-01-28T05:46:59.655Z,87.73
2019-01-28T05:49:48.926Z,87.74
2019-01-28T05:52:38.313Z,87.94
2019-01-28T05:55:27.773Z,88.01
2019-01-28T05:57:57.968Z,87.56
2019-01-28T06:00:34.666Z,87.84
2019-01-28T06:03:06.400Z,87.53
2019-01-28T06:05:36.621Z,87.94
2019-01-28T06:08:25.878Z,87.80
2019-01-28T06:11:15.479Z,87.89
2019-01-28T06:13:45.698Z,88.12
2019-01-28T06:16:35.109Z,88.50
2019-01-28T06:19:24.385Z,88.36
2019-01-28T06:21:54.643Z,88.74
2019-01-28T06:24:25.027Z,89.42
2019-01-28T06:27:14.236Z,89.23
2019-01-28T06:30:03.688Z,89.81
2019-01-28T06:32:53.336Z,89.75
2019-01-28T06:35:23.611Z,90.48
2019-01-28T06:37:54.454Z,89.89
2019-01-28T06:40:26.985Z,90.25
2019-01-28T06:43:16.850Z,90.15
2019-01-28T06:45:47.137Z,90.44
2019-01-28T06:48:18.563Z,90.54
2019-01-28T06:51:07.889Z,90.08
2019-01-28T06:53:57.044Z,90.38
2019-01-28T06:56:27.522Z,90.94
2019-01-28T06:58:58.133Z,90.08
2019-01-28T07:01:50.327Z,90.40
2019-01-28T07:04:20.906Z,90.57
2019-01-28T07:07:10.395Z,89.76
2019-01-28T07:09:40.580Z,89.54
2019-01-28T07:12:11.115Z,89.27
2019-01-28T07:14:41.235Z,89.01
2019-01-28T07:17:12.666Z,88.94
2019-01-28T07:20:02.613Z,88.93
2019-01-28T07:22:52.141Z,89.48
2019-01-28T07:25:22.309Z,89.96
2019-01-28T07:28:02.597Z,89.76
2019-01-28T07:30:36.186Z,89.18
2019-01-28T07:33:07.473Z,88.94
2019-01-28T07:35:37.990Z,89.38
2019-01-28T07:38:10.230Z,89.23
2019-01-28T07:40:40.376Z,88.46
2019-01-28T07:43:11.174Z,88.51
2019-01-28T07:45:45.469Z,88.46
2019-01-28T07:48:13.279Z,87.93
2019-01-28T07:50:50.698Z,88.53
2019-01-28T07:53:20.971Z,88.13
2019-01-28T07:55:51.107Z,88.46
2019-01-28T07:58:50.292Z,88.13
2019-01-28T08:01:23.154Z,87.77
2019-01-28T08:03:56.411Z,87.16
2019-01-28T08:06:26.983Z,87.04
2019-01-28T08:08:58.429Z,86.64
2019-01-28T08:11:28.623Z,86.59
2019-01-28T08:13:58.858Z,86.37
2019-01-28T08:16:29.011Z,86.27
2019-01-28T08:19:00.416Z,86.02
2019-01-28T08:21:33.061Z,85.82
2019-01-28T08:24:03.212Z,85.56
2019-01-28T08:26:33.435Z,85.22
2019-01-28T08:29:04.939Z,85.42
2019-01-28T08:31:35.385Z,85.71
2019-01-28T08:34:05.565Z,85.50
2019-01-28T08:36:35.666Z,85.91
2019-01-28T08:39:09.178Z,85.30
2019-01-28T08:41:39.409Z,84.37
2019-01-28T08:44:09.838Z,83.97
2019-01-28T08:46:39.971Z,84.46
2019-01-28T08:49:10.129Z,84.27
2019-01-28T08:51:40.561Z,84.29
2019-01-28T08:54:10.960Z,83.41
2019-01-28T08:56:41.100Z,82.54
2019-01-28T08:59:11.645Z,81.54
2019-01-28T09:01:41.774Z,81.08
2019-01-28T09:04:11.963Z,80.83
2019-01-28T09:06:45.588Z,80.28
2019-01-28T09:09:16.524Z,80.05
2019-01-28T09:11:47.687Z,80.84
2019-01-28T09:14:17.998Z,81.20
2019-01-28T09:16:48.405Z,81.48
2019-01-28T09:19:18.618Z,80.68
2019-01-28T09:21:48.817Z,80.61
2019-01-28T09:24:18.983Z,80.68
2019-01-28T09:26:49.074Z,80.77
2019-01-28T09:29:19.347Z,80.02
2019-01-28T09:31:49.714Z,79.95
2019-01-28T09:34:19.961Z,79.48
2019-01-28T09:36:51.470Z,79.94
2019-01-28T09:39:23.902Z,80.04
2019-01-28T09:41:54.089Z,79.50
2019-01-28T09:44:24.445Z,79.15
2019-01-28T09:46:54.642Z,79.31
2019-01-28T09:49:25.181Z,79.75
2019-01-28T09:51:55.346Z,79.45
2019-01-28T09:54:25.620Z,79.11
2019-01-28T09:56:55.725Z,79.48
2019-01-28T09:59:25.963Z,79.04
2019-01-28T10:01:57.470Z,78.91
2019-01-28T10:04:27.799Z,78.45
2019-01-28T10:06:57.925Z,78.59
2019-01-28T10:09:28.050Z,78.68
2019-01-28T10:11:58.180Z,79.02
2019-01-28T10:14:28.577Z,79.27
2019-01-28T10:16:58.660Z,79.60
2019-01-28T10:19:28.807Z,80.30
2019-01-28T10:21:58.955Z,79.99
2019-01-28T10:24:29.406Z,80.02
2019-01-28T10:26:59.931Z,80.71
2019-01-28T10:29:30.563Z,80.28
2019-01-28T10:32:00.698Z,80.36
2019-01-28T10:34:31.163Z,80.93
2019-01-28T10:37:01.614Z,80.31
2019-01-28T10:39:31.739Z,80.99
2019-01-28T10:42:01.961Z,81.25
2019-01-28T10:44:32.425Z,80.78
2019-01-28T10:47:05.991Z,81.08
2019-01-28T10:49:39.561Z,81.26
2019-01-28T10:52:09.970Z,81.42
2019-01-28T10:54:40.228Z,81.34
2019-01-28T10:57:43.330Z,81.81
2019-01-28T11:00:19.950Z,82.04
2019-01-28T11:02:53.701Z,82.40
2019-01-28T11:05:24.115Z,82.69
2019-01-28T11:07:58.704Z,82.46
2019-01-28T11:10:33.377Z,81.66
2019-01-28T11:13:05.218Z,81.70
2019-01-28T11:15:36.873Z,80.89
2019-01-28T11:18:13.321Z,81.26
2019-01-28T11:20:43.593Z,81.46
2019-01-28T11:23:15.548Z,81.10
2019-01-28T11:25:47.020Z,81.01
2019-01-28T11:28:18.870Z,80.37
2019-01-28T11:30:54.287Z,80.68
2019-01-28T11:33:24.435Z,79.76
2019-01-28T11:35:55.692Z,80.01
2019-01-28T11:38:26.139Z,80.58
2019-01-28T11:40:56.656Z,79.96
2019-01-28T11:43:26.901Z,80.43
2019-01-28T11:46:05.059Z,80.11
2019-01-28T11:48:35.315Z,79.39
2019-01-28T11:51:05.915Z,79.82
2019-01-28T11:53:36.394Z,79.90
2019-01-28T11:56:06.741Z,79.75
2019-01-28T11:58:36.841Z,78.22
2019-01-28T12:01:36.592Z,79.32
2019-01-28T12:04:06.693Z,79.53
2019-01-28T12:06:36.894Z,80.53
2019-01-28T12:09:11.532Z,81.65
2019-01-28T12:11:41.637Z,80.04
2019-01-28T12:14:11.792Z,81.04
2019-01-28T12:16:42.204Z,79.56
2019-01-28T12:19:14.257Z,78.78
2019-01-28T12:21:44.408Z,79.85
2019-01-28T12:24:14.887Z,80.15
2019-01-28T12:26:45.727Z,79.57
2019-01-28T12:29:15.868Z,80.35
2019-01-28T12:31:46.265Z,80.79
2019-01-28T12:34:16.646Z,80.24
2019-01-28T12:36:46.815Z,81.10
2019-01-28T12:39:16.894Z,81.87
2019-01-28T12:41:47.021Z,82.24
2019-01-28T12:44:17.491Z,82.19
2019-01-28T12:46:47.678Z,82.84
2019-01-28T12:49:22.083Z,83.08
2019-01-28T12:51:52.610Z,83.92
2019-01-28T12:54:22.809Z,84.37
2019-01-28T12:56:53.193Z,85.13
2019-01-28T12:59:23.399Z,85.12
2019-01-28T13:01:53.619Z,85.68
2019-01-28T13:04:23.804Z,86.28
2019-01-28T13:06:54.270Z,87.11
2019-01-28T13:09:24.589Z,87.08
2019-01-28T13:11:54.783Z,87.53
2019-01-28T13:14:24.904Z,88.06
2019-01-28T13:16:55.303Z,88.63
2019-01-28T13:19:30.081Z,88.77
2019-01-28T13:21:57.256Z,89.12
2019-01-28T13:24:27.719Z,89.08
2019-01-28T13:26:57.829Z,90.17
2019-01-28T13:29:27.950Z,89.67
2019-01-28T13:31:58.068Z,89.95
2019-01-28T13:34:28.582Z,90.36
2019-01-28T13:36:58.682Z,90.60
2019-01-28T13:39:28.781Z,90.02
2019-01-28T13:41:59.212Z,90.15
2019-01-28T13:44:29.382Z,90.65
2019-01-28T13:46:59.536Z,90.99
2019-01-28T13:49:29.735Z,90.93
2019-01-28T13:51:59.887Z,91.38
2019-01-28T13:54:30.196Z,90.90
2019-01-28T13:57:04.632Z,90.89
2019-01-28T13:59:35.168Z,91.59
2019-01-28T14:02:05.708Z,91.58
2019-01-28T14:04:36.178Z,92.08
2019-01-28T14:07:06.757Z,91.92
2019-01-28T14:09:37.178Z,92.30
2019-01-28T14:12:07.621Z,93.44
2019-01-28T14:14:38.046Z,93.77
2019-01-28T14:17:08.475Z,92.91
2019-01-28T14:19:46.064Z,93.11
2019-01-28T14:22:10.993Z,93.79
2019-01-28T14:24:41.619Z,94.13
2019-01-28T14:27:12.030Z,94.65
2019-01-28T14:29:42.143Z,94.02
2019-01-28T14:32:12.390Z,94.51
2019-01-28T14:34:43.993Z,94.97
2019-01-28T14:37:14.464Z,95.45
2019-01-28T14:39:44.687Z,95.58
2019-01-28T14:42:15.269Z,95.63
2019-01-28T14:44:45.666Z,95.30
2019-01-28T14:47:18.305Z,96.27
2019-01-28T14:49:54.463Z,96.17
2019-01-28T14:52:20.727Z,95.93
2019-01-28T14:54:53.109Z,96.25
2019-01-28T14:57:24.763Z,96.77
2019-01-28T14:59:54.956Z,96.19
2019-01-28T15:02:26.354Z,96.75
2019-01-28T15:04:58.419Z,96.49
2019-01-28T15:07:32.114Z,96.64
2019-01-28T15:10:04.160Z,97.43
2019-01-28T15:12:44.623Z,97.27
2019-01-28T15:15:23.840Z,97.92
2019-01-28T15:17:57.014Z,97.43
2019-01-28T15:20:30.872Z,97.49
2019-01-28T15:23:04.294Z,96.78
2019-01-28T15:25:34.942Z,97.44
2019-01-28T15:28:05.777Z,97.85
2019-01-28T15:31:09.014Z,97.92
2019-01-28T15:33:39.889Z,97.59
2019-01-28T15:36:14.827Z,97.79
2019-01-28T15:38:47.166Z,97.94
2019-01-28T15:41:17.765Z,98.44
2019-01-28T15:44:02.324Z,98.14
2019-01-28T15:46:52.347Z,98.34
2019-01-28T15:49:22.673Z,98.99
2019-01-28T15:52:19.535Z,98.56
2019-01-28T15:54:53.697Z,98.59
2019-01-28T15:57:24.886Z,98.73
2019-01-28T15:59:55.717Z,99.05
2019-01-28T16:03:04.482Z,99.06
2019-01-28T16:05:37.909Z,99.02
2019-01-28T16:08:09.245Z,99.31
2019-01-28T16:11:26.722Z,99.20
2019-01-28T16:13:57.470Z,99.40
2019-01-28T16:16:53.528Z,99.62
2019-01-28T16:19:23.872Z,99.97
2019-01-28T16:21:57.959Z,99.36
2019-01-28T16:24:28.789Z,100.00
2019-01-28T16:27:03.721Z,100.00
2019-01-28T16:29:34.119Z,100.00
2019-01-28T16:32:07.097Z,100.00
2019-01-28T16:34:37.641Z,99.83
2019-01-28T16:37:08.220Z,99.38
2019-01-28T16:39:42.179Z,99.11
2019-01-28T16:42:19.470Z,99.19
2019-01-28T16:44:52.065Z,98.95
2019-01-28T16:47:28.839Z,99.06
2019-01-28T16:50:02.956Z,98.35
2019-01-28T16:52:33.283Z,98.39
2019-01-28T16:55:06.081Z,99.21
2019-01-28T16:57:36.319Z,99.20
2019-01-28T17:00:10.888Z,98.67
2019-01-28T17:02:44.009Z,99.16
2019-01-28T17:05:15.676Z,98.73
2019-01-28T17:07:46.149Z,98.38
2019-01-28T17:10:22.272Z,98.40
2019-01-28T17:13:21.206Z,97.93
2019-01-28T17:15:53.578Z,98.29
2019-01-28T17:18:29.641Z,98.31
2019-01-28T17:21:08.969Z,97.71
2019-01-28T17:23:55.273Z,97.91
2019-01-28T17:26:39.923Z,98.67
2019-01-28T17:29:51.602Z,99.03
2019-01-28T17:32:33.288Z,98.34
2019-01-28T17:35:33.403Z,98.38
2019-01-28T17:38:43.709Z,98.00
2019-01-28T17:41:21.563Z,98.76
2019-01-28T17:44:01.702Z,99.62
2019-01-28T17:46:42.241Z,99.47
2019-01-28T17:49:18.085Z,99.27
2019-01-28T17:51:50.567Z,98.67
2019-01-28T17:54:22.504Z,99.29
2019-01-28T17:56:54.036Z,99.48
2019-01-28T17:59:24.722Z,99.11
2019-01-28T18:01:56.129Z,98.59
2019-01-28T18:04:27.702Z,98.43
2019-01-28T18:06:58.231Z,99.59
2019-01-28T18:09:29.353Z,99.87
2019-01-28T18:11:59.601Z,100.00
2019-01-28T18:14:29.822Z,99.39
2019-01-28T18:17:04.756Z,99.12
2019-01-28T18:19:36.552Z,99.37
2019-01-28T18:22:07.553Z,99.83
2019-01-28T18:24:38.551Z,99.55
2019-01-28T18:27:10.653Z,98.54
2019-01-28T18:29:42.069Z,99.58
2019-01-28T18:32:13.064Z,99.32
2019-01-28T18:34:43.389Z,98.66
2019-01-28T18:37:18.198Z,98.58
2019-01-28T18:39:48.639Z,98.37
2019-01-28T18:42:28.814Z,98.52
2019-01-28T18:44:59.925Z,98.64
2019-01-28T18:47:32.431Z,98.51
2019-01-28T18:50:13.182Z,99.71
2019-01-28T18:52:46.875Z,99.70
2019-01-28T18:55:17.694Z,99.30
2019-01-28T18:57:51.031Z,99.00
2019-01-28T19:00:29.537Z,97.97
2019-01-28T19:03:02.622Z,98.62
2019-01-28T19:05:51.943Z,98.46
2019-01-28T19:08:39.773Z,99.04
2019-01-28T19:11:32.724Z,98.62
2019-01-28T19:14:42.706Z,98.23
2019-01-28T19:17:41.082Z,98.29
2019-01-28T19:20:20.505Z,97.73
2019-01-28T19:22:50.762Z,97.79
2019-01-28T19:25:21.616Z,97.23
2019-01-28T19:27:54.222Z,97.31
2019-01-28T19:30:30.028Z,97.82
2019-01-28T19:33:11.553Z,97.13
2019-01-28T19:35:52.696Z,97.02
2019-01-28T19:38:23.074Z,97.10
2019-01-28T19:41:03.231Z,96.32
2019-01-28T19:44:06.375Z,95.59
2019-01-28T19:50:16.570Z,96.22
2019-01-28T19:52:47.185Z,94.68
2019-01-28T19:55:17.604Z,92.71
2019-01-28T19:57:47.880Z,93.05
2019-01-28T20:00:29.279Z,92.71
2019-01-28T20:03:02.389Z,92.39
2019-01-28T20:05:32.764Z,92.42
2019-01-28T20:08:03.335Z,93.27
2019-01-28T20:10:34.277Z,92.52
2019-01-28T20:13:04.425Z,93.67
2019-01-28T20:15:35.914Z,93.70
2019-01-28T20:18:06.109Z,92.19
2019-01-28T20:20:36.348Z,92.47
2019-01-28T20:23:07.340Z,92.59
2019-01-28T20:25:40.452Z,91.61
2019-01-28T20:28:13.526Z,91.17
2019-01-28T20:30:43.827Z,90.76
2019-01-28T20:33:14.447Z,90.43
2019-01-28T20:35:44.890Z,90.63
2019-01-28T20:38:16.022Z,91.11
2019-01-28T20:40:46.259Z,91.05
2019-01-28T20:43:23.840Z,89.83
2019-01-28T20:45:49.538Z,88.40
2019-01-28T20:48:19.958Z,88.34
2019-01-28T20:50:50.465Z,88.69
2019-01-28T20:53:27.158Z,88.27
2019-01-28T20:55:58.729Z,88.69
2019-01-28T20:58:30.995Z,87.75
2019-01-28T21:01:06.075Z,88.58
2019-01-28T21:03:36.537Z,88.42
2019-01-28T21:06:07.280Z,86.98
2019-01-28T21:08:37.894Z,87.23
2019-01-28T21:11:08.094Z,88.16
2019-01-28T21:13:38.332Z,88.35
2019-01-28T21:16:08.704Z,88.00
2019-01-28T21:18:38.860Z,88.01
2019-01-28T21:21:09.029Z,87.39
2019-01-28T21:23:39.626Z,87.29
2019-01-28T21:26:10.088Z,87.63
2019-01-28T21:28:40.331Z,87.50
2019-01-28T21:31:10.815Z,86.86
2019-01-28T21:33:42.280Z,86.44
2019-01-28T21:36:40.208Z,86.96
2019-01-28T21:39:13.442Z,87.20
2019-01-28T21:41:47.164Z,87.54
2019-01-28T21:44:17.729Z,88.24
2019-01-28T21:46:47.849Z,88.20
2019-01-28T21:49:18.112Z,87.71
2019-01-28T21:51:50.720Z,87.89
2019-01-28T21:54:22.398Z,87.41
2019-01-28T21:56:56.327Z,88.15
2019-01-28T21:59:26.540Z,88.11
2019-01-28T22:01:56.853Z,87.62
2019-01-28T22:04:27.499Z,87.27
2019-01-28T22:06:57.695Z,86.83
2019-01-28T22:09:27.909Z,87.43
2019-01-28T22:11:59.392Z,87.68
2019-01-28T22:14:29.556Z,88.22
2019-01-28T22:17:00.019Z,88.67
2019-01-28T22:19:30.146Z,89.45
2019-01-28T22:22:00.335Z,89.89
2019-01-28T22:24:32.637Z,89.86
2019-01-28T22:27:03.242Z,89.83
2019-01-28T22:29:34.166Z,90.12
2019-01-28T22:32:04.291Z,90.25
2019-01-28T22:34:35.432Z,90.13
2019-01-28T22:37:06.022Z,90.29
2019-01-28T22:39:36.239Z,90.09
2019-01-28T22:42:06.458Z,89.54
2019-01-28T22:44:37.264Z,89.66
2019-01-28T22:47:07.745Z,89.47
2019-01-28T22:49:38.024Z,89.15
2019-01-28T22:52:08.338Z,88.93
2019-01-28T22:54:38.566Z,88.88
2019-01-28T22:57:08.712Z,89.32
2019-01-28T22:59:39.671Z,89.61
2019-01-28T23:02:10.066Z,89.27
2019-01-28T23:04:43.310Z,88.70
2019-01-28T23:07:14.010Z,88.71
2019-01-28T23:09:44.673Z,88.97
2019-01-28T23:12:15.391Z,88.78
2019-01-28T23:14:46.641Z,88.61
2019-01-28T23:17:17.016Z,88.23
2019-01-28T23:19:47.693Z,87.83
2019-01-28T23:22:18.923Z,88.29
2019-01-28T23:24:49.507Z,88.43
2019-01-28T23:27:19.726Z,88.23
2019-01-28T23:29:50.305Z,88.24
2019-01-28T23:32:20.453Z,88.42
2019-01-28T23:34:50.558Z,88.32
2019-01-28T23:38:03.854Z,88.33
2019-01-28T23:40:34.026Z,88.71
2019-01-28T23:43:04.912Z,88.88
2019-01-28T23:45:35.686Z,89.61
2019-01-28T23:48:05.876Z,89.51
2019-01-28T23:50:36.119Z,89.29
2019-01-28T23:53:06.267Z,89.25
2019-01-28T23:55:36.690Z,89.90
2019-01-28T23:58:11.104Z,90.12
